Time;durP1;ratioP1;P1;durP2;ratioP2;P2;SDS_P1;SDS_P2;PMS_P1;PMS_P2;Temp;Humidity;BMP_temperature;BMP_pressure;BME280_temperature;BME280_humidity;BME280_pressure;Samples;Min_cycle;Max_cycle;Signal;HPM_P1;HPM_P2
2022/03/13 00:02:17;;;;;;;18.80;11.70;;;;;;;;;;5100928;28;20016;-68
2022/03/13 00:04:49;;;;;;;17.45;11.63;;;;;;;;;;5078862;28;20137;-68
2022/03/13 00:07:25;;;;;;;18.10;11.23;;;;;;;;;;5095871;28;20041;-68
2022/03/13 00:09:51;;;;;;;20.98;11.80;;;;;;;;;;5092559;28;20020;-68
2022/03/13 00:12:24;;;;;;;17.20;12.20;;;;;;;;;;5095240;28;20077;-68
2022/03/13 00:14:51;;;;;;;19.63;12.05;;;;;;;;;;5106409;28;20026;-68
2022/03/13 00:17:17;;;;;;;20.52;12.55;;;;;;;;;;5100185;28;20028;-68
2022/03/13 00:19:44;;;;;;;18.40;11.63;;;;;;;;;;5096190;28;20012;-68
2022/03/13 00:22:12;;;;;;;20.80;12.20;;;;;;;;;;5094614;28;20028;-68
2022/03/13 00:24:38;;;;;;;17.02;11.32;;;;;;;;;;5093121;28;20057;-68
2022/03/13 00:27:07;;;;;;;19.52;11.68;;;;;;;;;;5077662;28;20036;-68
2022/03/13 00:29:34;;;;;;;18.17;11.77;;;;;;;;;;5095899;28;20123;-68
2022/03/13 00:32:00;;;;;;;18.30;11.55;;;;;;;;;;5095602;28;20031;-68
2022/03/13 00:34:26;;;;;;;18.55;11.43;;;;;;;;;;5096280;28;20024;-68
2022/03/13 00:36:52;;;;;;;18.17;11.77;;;;;;;;;;5074540;28;20089;-68
2022/03/13 00:39:18;;;;;;;18.80;12.40;;;;;;;;;;5095246;28;20028;-68
2022/03/13 00:41:44;;;;;;;19.08;12.43;;;;;;;;;;5105300;28;20100;-68
2022/03/13 00:44:11;;;;;;;20.70;12.05;;;;;;;;;;5082900;28;20028;-68
2022/03/13 00:46:37;;;;;;;18.88;12.05;;;;;;;;;;5095436;28;20039;-68
2022/03/13 00:49:03;;;;;;;21.65;12.48;;;;;;;;;;5093881;28;20549;-68
2022/03/13 00:51:29;;;;;;;24.75;13.48;;;;;;;;;;5093253;28;20067;-68
2022/03/13 00:53:55;;;;;;;21.30;13.20;;;;;;;;;;5096105;28;20059;-68
2022/03/13 00:56:21;;;;;;;19.13;12.38;;;;;;;;;;5102254;28;20051;-68
2022/03/13 00:58:47;;;;;;;21.15;12.38;;;;;;;;;;5085729;28;20083;-68
2022/03/13 01:01:13;;;;;;;18.48;11.60;;;;;;;;;;5094566;28;20066;-68
2022/03/13 01:03:39;;;;;;;17.73;11.10;;;;;;;;;;5074406;28;20028;-68
2022/03/13 01:06:06;;;;;;;17.95;11.85;;;;;;;;;;5077634;28;20053;-68
2022/03/13 01:08:32;;;;;;;21.48;11.57;;;;;;;;;;5081898;28;20039;-68
2022/03/13 01:10:58;;;;;;;21.83;11.95;;;;;;;;;;5099673;28;20042;-68
2022/03/13 01:13:25;;;;;;;18.90;11.57;;;;;;;;;;5099874;28;20065;-68
2022/03/13 01:15:55;;;;;;;17.48;11.25;;;;;;;;;;5096036;28;20027;-68
2022/03/13 01:18:21;;;;;;;17.63;11.40;;;;;;;;;;5098131;28;20016;-68
2022/03/13 01:20:48;;;;;;;21.90;12.65;;;;;;;;;;5109109;28;20213;-69
2022/03/13 01:23:16;;;;;;;19.13;12.02;;;;;;;;;;5103450;28;20032;-68
2022/03/13 01:25:42;;;;;;;24.45;12.70;;;;;;;;;;5082027;28;20516;-68
2022/03/13 01:28:08;;;;;;;22.00;12.15;;;;;;;;;;5098170;28;20027;-67
2022/03/13 01:30:34;;;;;;;19.73;11.93;;;;;;;;;;5078384;28;20040;-69
2022/03/13 01:33:00;;;;;;;22.92;11.77;;;;;;;;;;5098840;28;20039;-68
2022/03/13 01:35:27;;;;;;;17.58;11.32;;;;;;;;;;5081491;28;20427;-68
2022/03/13 01:37:53;;;;;;;19.35;11.13;;;;;;;;;;5099661;28;20031;-68
2022/03/13 01:40:21;;;;;;;20.92;11.20;;;;;;;;;;5099564;28;20047;-68
2022/03/13 01:42:48;;;;;;;17.05;10.63;;;;;;;;;;5095271;28;20050;-69
2022/03/13 01:45:15;;;;;;;17.77;10.93;;;;;;;;;;5109816;28;20023;-68
2022/03/13 01:47:42;;;;;;;18.63;10.70;;;;;;;;;;5099701;28;20440;-68
2022/03/13 01:50:09;;;;;;;16.55;10.70;;;;;;;;;;5081216;28;20469;-68
2022/03/13 01:52:35;;;;;;;19.52;11.25;;;;;;;;;;5080988;28;20035;-68
2022/03/13 01:55:02;;;;;;;17.10;10.50;;;;;;;;;;5096694;28;20024;-68
2022/03/13 01:57:28;;;;;;;14.63;9.70;;;;;;;;;;5096619;28;20028;-68
2022/03/13 01:59:56;;;;;;;18.58;10.50;;;;;;;;;;5108470;28;20020;-68
2022/03/13 02:02:24;;;;;;;17.40;10.50;;;;;;;;;;5101829;28;20038;-68
2022/03/13 02:04:52;;;;;;;19.38;10.38;;;;;;;;;;5099036;28;20028;-69
2022/03/13 02:07:18;;;;;;;17.70;10.25;;;;;;;;;;5080813;28;20050;-68
2022/03/13 02:09:46;;;;;;;20.42;11.65;;;;;;;;;;5094349;28;20354;-68
2022/03/13 02:12:12;;;;;;;19.00;10.80;;;;;;;;;;5098425;28;20028;-68
2022/03/13 02:14:38;;;;;;;23.42;11.70;;;;;;;;;;5080565;28;20031;-68
2022/03/13 02:17:04;;;;;;;19.55;11.50;;;;;;;;;;5098940;28;20028;-68
2022/03/13 02:19:30;;;;;;;18.33;11.05;;;;;;;;;;5097160;28;20020;-68
2022/03/13 02:21:58;;;;;;;19.15;11.32;;;;;;;;;;5095557;28;20028;-68
2022/03/13 02:24:25;;;;;;;17.38;11.25;;;;;;;;;;5096420;28;20073;-68
2022/03/13 02:26:55;;;;;;;18.92;10.80;;;;;;;;;;5108390;28;20027;-68
2022/03/13 02:29:22;;;;;;;20.17;11.43;;;;;;;;;;5101010;28;20049;-68
2022/03/13 02:31:47;;;;;;;16.83;11.02;;;;;;;;;;5098455;28;20038;-68
2022/03/13 02:34:15;;;;;;;18.50;11.07;;;;;;;;;;5096955;28;20024;-68
2022/03/13 02:36:53;;;;;;;20.23;10.95;;;;;;;;;;5095089;28;20115;-68
2022/03/13 02:39:19;;;;;;;20.58;11.07;;;;;;;;;;5109545;28;20074;-68
2022/03/13 02:41:45;;;;;;;22.63;11.65;;;;;;;;;;5098679;28;20025;-68
2022/03/13 02:44:14;;;;;;;20.25;11.10;;;;;;;;;;5097735;28;20032;-68
2022/03/13 02:46:46;;;;;;;18.77;10.63;;;;;;;;;;5098143;28;20118;-68
2022/03/13 02:49:12;;;;;;;17.70;9.93;;;;;;;;;;5096792;28;20073;-68
2022/03/13 02:51:39;;;;;;;18.48;10.32;;;;;;;;;;5094770;28;20066;-68
2022/03/13 02:54:05;;;;;;;19.73;10.35;;;;;;;;;;5097125;28;20047;-68
2022/03/13 02:56:31;;;;;;;18.35;10.88;;;;;;;;;;5097947;28;20058;-68
2022/03/13 02:58:57;;;;;;;19.15;10.90;;;;;;;;;;5097399;28;20024;-68
2022/03/13 03:01:23;;;;;;;18.20;10.38;;;;;;;;;;5080353;28;20031;-69
2022/03/13 03:03:49;;;;;;;16.85;10.77;;;;;;;;;;5093364;28;20042;-68
2022/03/13 03:06:15;;;;;;;17.05;10.93;;;;;;;;;;5090477;28;20393;-68
2022/03/13 03:08:41;;;;;;;20.50;11.50;;;;;;;;;;5097729;28;20438;-69
2022/03/13 03:11:07;;;;;;;19.17;11.02;;;;;;;;;;5097756;28;20103;-69
2022/03/13 03:13:34;;;;;;;20.17;11.10;;;;;;;;;;5097292;28;20024;-68
2022/03/13 03:16:00;;;;;;;19.35;10.38;;;;;;;;;;5076872;28;20023;-69
2022/03/13 03:18:26;;;;;;;19.45;11.75;;;;;;;;;;5108591;28;20019;-69
2022/03/13 03:20:52;;;;;;;19.27;12.40;;;;;;;;;;5087602;28;20028;-69
2022/03/13 03:23:18;;;;;;;18.48;11.18;;;;;;;;;;5083214;28;20020;-69
2022/03/13 03:25:44;;;;;;;18.58;11.18;;;;;;;;;;5096673;28;20059;-69
2022/03/13 03:28:10;;;;;;;17.40;10.98;;;;;;;;;;5096304;28;20023;-68
2022/03/13 03:30:36;;;;;;;19.75;11.75;;;;;;;;;;5094113;28;20050;-69
2022/03/13 03:33:03;;;;;;;19.60;11.05;;;;;;;;;;5078838;28;20503;-69
2022/03/13 03:35:29;;;;;;;19.30;11.77;;;;;;;;;;5096435;28;20024;-69
2022/03/13 03:37:55;;;;;;;17.67;11.68;;;;;;;;;;5097356;28;20403;-69
2022/03/13 03:40:22;;;;;;;18.35;11.20;;;;;;;;;;5097064;28;20030;-69
2022/03/13 03:42:48;;;;;;;19.30;11.38;;;;;;;;;;5074855;28;20085;-69
2022/03/13 03:45:18;;;;;;;19.63;11.82;;;;;;;;;;5089049;28;20023;-69
2022/03/13 03:47:45;;;;;;;19.88;11.68;;;;;;;;;;5076284;28;20024;-68
2022/03/13 03:50:11;;;;;;;19.48;12.65;;;;;;;;;;5079530;28;20055;-69
2022/03/13 03:52:37;;;;;;;20.70;11.77;;;;;;;;;;5096773;28;20028;-69
2022/03/13 03:55:03;;;;;;;17.42;11.35;;;;;;;;;;5093264;28;20023;-69
2022/03/13 03:57:29;;;;;;;21.40;11.82;;;;;;;;;;5108754;28;20024;-69
2022/03/13 03:59:55;;;;;;;20.10;11.65;;;;;;;;;;5105707;28;20087;-68
2022/03/13 04:02:21;;;;;;;19.40;11.45;;;;;;;;;;5099996;28;20024;-69
2022/03/13 04:04:47;;;;;;;18.65;11.18;;;;;;;;;;5096617;28;20089;-68
2022/03/13 04:07:13;;;;;;;21.92;11.25;;;;;;;;;;5094922;28;20032;-69
2022/03/13 04:09:40;;;;;;;21.40;11.43;;;;;;;;;;5092998;28;20039;-69
2022/03/13 04:12:07;;;;;;;18.40;11.88;;;;;;;;;;5096348;28;20030;-68
2022/03/13 04:14:34;;;;;;;20.65;11.45;;;;;;;;;;5096112;28;20020;-69
2022/03/13 04:17:00;;;;;;;19.65;11.18;;;;;;;;;;5096345;28;20024;-69
2022/03/13 04:19:27;;;;;;;15.80;9.68;;;;;;;;;;5096827;28;20026;-69
2022/03/13 04:21:53;;;;;;;18.13;10.53;;;;;;;;;;5075161;28;20044;-69
2022/03/13 04:24:20;;;;;;;17.02;10.63;;;;;;;;;;5076459;28;20034;-69
2022/03/13 04:26:48;;;;;;;19.05;11.15;;;;;;;;;;5096247;28;20453;-69
2022/03/13 04:29:14;;;;;;;21.13;12.07;;;;;;;;;;5078740;28;20044;-69
2022/03/13 04:31:41;;;;;;;17.83;10.68;;;;;;;;;;5096547;28;20038;-69
2022/03/13 04:34:07;;;;;;;20.23;11.88;;;;;;;;;;5075406;28;20102;-69
2022/03/13 04:36:33;;;;;;;22.90;14.35;;;;;;;;;;5108332;28;20103;-69
2022/03/13 04:39:01;;;;;;;23.67;14.15;;;;;;;;;;5095454;28;20404;-69
2022/03/13 04:41:27;;;;;;;23.45;13.75;;;;;;;;;;5079827;28;20016;-68
2022/03/13 04:43:53;;;;;;;17.25;9.45;;;;;;;;;;5085429;28;20383;-69
2022/03/13 04:46:19;;;;;;;17.92;10.27;;;;;;;;;;5084436;28;20500;-69
2022/03/13 04:48:45;;;;;;;19.15;10.65;;;;;;;;;;5080668;28;20032;-68
2022/03/13 04:51:12;;;;;;;20.80;12.10;;;;;;;;;;5084458;28;20024;-69
2022/03/13 04:53:38;;;;;;;18.13;10.63;;;;;;;;;;5084551;28;20054;-69
2022/03/13 04:56:05;;;;;;;18.42;10.93;;;;;;;;;;5102988;28;20020;-69
2022/03/13 04:58:31;;;;;;;18.70;11.75;;;;;;;;;;5103135;28;20019;-69
2022/03/13 05:00:57;;;;;;;21.00;11.73;;;;;;;;;;5099453;28;20103;-69
2022/03/13 05:03:23;;;;;;;20.30;11.73;;;;;;;;;;5100650;28;20024;-69
2022/03/13 05:05:49;;;;;;;24.42;12.70;;;;;;;;;;5079927;28;20047;-69
2022/03/13 05:08:16;;;;;;;24.02;13.15;;;;;;;;;;5102825;28;20358;-69
2022/03/13 05:10:46;;;;;;;23.55;12.27;;;;;;;;;;5103302;28;20428;-69
2022/03/13 05:13:14;;;;;;;22.17;12.52;;;;;;;;;;5082300;28;20020;-69
2022/03/13 05:15:41;;;;;;;20.67;12.10;;;;;;;;;;5114551;28;20027;-69
2022/03/13 05:18:07;;;;;;;23.40;11.20;;;;;;;;;;5083965;28;20085;-69
2022/03/13 05:20:34;;;;;;;17.55;11.10;;;;;;;;;;5084930;28;20036;-69
2022/03/13 05:23:00;;;;;;;22.05;12.27;;;;;;;;;;5084878;28;20028;-69
2022/03/13 05:25:30;;;;;;;21.48;12.15;;;;;;;;;;5102669;28;20031;-69
2022/03/13 05:27:57;;;;;;;20.02;11.80;;;;;;;;;;5081183;28;20024;-69
2022/03/13 05:30:23;;;;;;;23.20;13.15;;;;;;;;;;5100329;28;20071;-69
2022/03/13 05:32:49;;;;;;;21.58;12.98;;;;;;;;;;5103076;28;20035;-68
2022/03/13 05:35:16;;;;;;;23.75;12.93;;;;;;;;;;5084861;28;20381;-69
2022/03/13 05:37:43;;;;;;;22.35;11.98;;;;;;;;;;5102239;28;20452;-69
2022/03/13 05:40:13;;;;;;;20.52;11.93;;;;;;;;;;5100283;28;20081;-69
2022/03/13 05:42:39;;;;;;;19.95;12.65;;;;;;;;;;5080775;28;20040;-69
2022/03/13 05:45:05;;;;;;;21.38;11.93;;;;;;;;;;5102049;28;20016;-70
2022/03/13 05:47:31;;;;;;;21.58;12.63;;;;;;;;;;5102405;28;20031;-70
2022/03/13 05:50:00;;;;;;;21.95;12.77;;;;;;;;;;5102399;28;20492;-69
2022/03/13 05:52:26;;;;;;;20.65;11.90;;;;;;;;;;5100093;28;20024;-70
2022/03/13 05:54:52;;;;;;;18.83;11.32;;;;;;;;;;5109438;28;20518;-69
2022/03/13 05:57:19;;;;;;;20.98;11.35;;;;;;;;;;5097888;28;20529;-69
2022/03/13 05:59:45;;;;;;;18.65;11.23;;;;;;;;;;5086822;28;20028;-70
2022/03/13 06:02:11;;;;;;;21.40;11.40;;;;;;;;;;5081144;28;20484;-69
2022/03/13 06:04:37;;;;;;;23.73;12.38;;;;;;;;;;5098829;28;20549;-69
2022/03/13 06:07:04;;;;;;;21.83;11.52;;;;;;;;;;5078185;28;20489;-69
2022/03/13 06:09:30;;;;;;;21.60;12.73;;;;;;;;;;5109975;28;20022;-69
2022/03/13 06:11:57;;;;;;;27.60;16.65;;;;;;;;;;5113150;28;20032;-70
2022/03/13 06:14:23;;;;;;;26.63;15.30;;;;;;;;;;5111329;28;20019;-69
2022/03/13 06:16:49;;;;;;;23.40;13.15;;;;;;;;;;5112494;28;20515;-70
2022/03/13 06:19:15;;;;;;;22.85;13.88;;;;;;;;;;5110853;28;20032;-70
2022/03/13 06:21:42;;;;;;;24.98;14.50;;;;;;;;;;5110833;28;20032;-69
2022/03/13 06:24:08;;;;;;;20.40;12.80;;;;;;;;;;5110330;28;20051;-68
2022/03/13 06:26:34;;;;;;;20.40;12.45;;;;;;;;;;5088355;28;20431;-69
2022/03/13 06:29:01;;;;;;;20.35;12.23;;;;;;;;;;5090513;28;20039;-69
2022/03/13 06:31:27;;;;;;;20.20;11.48;;;;;;;;;;5110728;28;20115;-68
2022/03/13 06:33:53;;;;;;;19.35;11.30;;;;;;;;;;5111506;28;20023;-70
2022/03/13 06:36:19;;;;;;;22.02;12.32;;;;;;;;;;5111497;28;20088;-68
2022/03/13 06:38:45;;;;;;;20.08;11.85;;;;;;;;;;5107676;28;20051;-68
2022/03/13 06:41:11;;;;;;;19.40;10.68;;;;;;;;;;5108397;28;20341;-70
2022/03/13 06:43:37;;;;;;;21.17;11.35;;;;;;;;;;5091556;28;20514;-68
2022/03/13 06:46:03;;;;;;;19.35;11.30;;;;;;;;;;5109258;28;20036;-69
2022/03/13 06:48:31;;;;;;;19.70;11.18;;;;;;;;;;5093010;28;20039;-70
2022/03/13 06:50:57;;;;;;;20.02;11.60;;;;;;;;;;5098674;27;20016;-68
2022/03/13 06:53:23;;;;;;;19.00;11.48;;;;;;;;;;5086828;28;20024;-70
2022/03/13 06:55:52;;;;;;;19.70;11.57;;;;;;;;;;5104036;27;20450;-68
2022/03/13 06:58:19;;;;;;;18.83;11.63;;;;;;;;;;5105449;28;20031;-68
2022/03/13 07:00:45;;;;;;;18.27;11.55;;;;;;;;;;5108099;28;20028;-68
2022/03/13 07:03:13;;;;;;;17.70;10.63;;;;;;;;;;5107387;28;20027;-69
2022/03/13 07:05:39;;;;;;;17.10;11.13;;;;;;;;;;5105874;28;20051;-67
2022/03/13 07:08:05;;;;;;;18.58;11.18;;;;;;;;;;5101504;28;20036;-67
2022/03/13 07:10:31;;;;;;;18.00;10.57;;;;;;;;;;5084643;28;20024;-67
2022/03/13 07:12:57;;;;;;;17.23;10.68;;;;;;;;;;5104990;28;20024;-68
2022/03/13 07:15:23;;;;;;;17.63;10.35;;;;;;;;;;5087714;28;20134;-67
2022/03/13 07:17:50;;;;;;;18.23;11.15;;;;;;;;;;5086665;28;20057;-67
2022/03/13 07:20:16;;;;;;;19.20;12.18;;;;;;;;;;5104878;28;20066;-67
2022/03/13 07:22:43;;;;;;;20.45;11.88;;;;;;;;;;5104548;28;20024;-67
2022/03/13 07:25:09;;;;;;;20.48;12.10;;;;;;;;;;5103675;28;20039;-66
2022/03/13 07:27:36;;;;;;;21.45;11.20;;;;;;;;;;5105876;28;20106;-67
2022/03/13 07:30:03;;;;;;;18.70;11.98;;;;;;;;;;5091577;28;20044;-68
2022/03/13 07:32:29;;;;;;;18.23;11.60;;;;;;;;;;5110691;28;20514;-68
2022/03/13 07:34:55;;;;;;;17.15;11.57;;;;;;;;;;5106171;28;20492;-68
2022/03/13 07:37:21;;;;;;;18.90;12.07;;;;;;;;;;5108231;28;20117;-68
2022/03/13 07:39:47;;;;;;;16.88;10.50;;;;;;;;;;5087911;28;20055;-67
2022/03/13 07:42:17;;;;;;;23.02;16.88;;;;;;;;;;5089484;28;20035;-67
2022/03/13 07:44:43;;;;;;;19.52;11.68;;;;;;;;;;5091959;28;20031;-67
2022/03/13 07:47:09;;;;;;;21.13;15.50;;;;;;;;;;5089832;28;20039;-71
2022/03/13 07:49:35;;;;;;;20.55;13.88;;;;;;;;;;5104795;28;20143;-71
2022/03/13 07:52:02;;;;;;;17.80;11.98;;;;;;;;;;5105304;28;20068;-66
2022/03/13 07:54:28;;;;;;;18.08;12.13;;;;;;;;;;5104544;28;20058;-67
2022/03/13 07:56:54;;;;;;;16.13;10.88;;;;;;;;;;5095984;28;20062;-67
2022/03/13 07:59:20;;;;;;;17.98;11.63;;;;;;;;;;5084202;28;20671;-66
2022/03/13 08:01:47;;;;;;;18.13;12.05;;;;;;;;;;5107420;27;20027;-67
2022/03/13 08:04:14;;;;;;;17.52;11.35;;;;;;;;;;5104761;28;20024;-67
2022/03/13 08:06:40;;;;;;;17.88;11.30;;;;;;;;;;5104975;28;20031;-68
2022/03/13 08:09:06;;;;;;;17.08;11.95;;;;;;;;;;5082676;28;20027;-67
2022/03/13 08:11:36;;;;;;;19.00;11.70;;;;;;;;;;5100913;28;20027;-72
2022/03/13 08:14:07;;;;;;;17.80;11.15;;;;;;;;;;5078278;28;20437;-72
2022/03/13 08:16:33;;;;;;;17.92;11.57;;;;;;;;;;5103248;28;20024;-72
2022/03/13 08:19:00;;;;;;;16.90;11.15;;;;;;;;;;5085909;28;20031;-72
2022/03/13 08:21:26;;;;;;;16.27;11.45;;;;;;;;;;5106132;28;20038;-72
2022/03/13 08:23:53;;;;;;;16.58;11.65;;;;;;;;;;5105262;28;20023;-72
2022/03/13 08:26:19;;;;;;;18.25;11.43;;;;;;;;;;5087426;28;20078;-72
2022/03/13 08:28:45;;;;;;;18.50;11.43;;;;;;;;;;5103973;28;20046;-72
2022/03/13 08:31:12;;;;;;;20.38;12.27;;;;;;;;;;5105415;28;20024;-72
2022/03/13 08:33:38;;;;;;;15.90;11.48;;;;;;;;;;5104356;28;20020;-72
2022/03/13 08:36:04;;;;;;;17.98;12.63;;;;;;;;;;5097058;28;20034;-72
2022/03/13 08:38:30;;;;;;;17.45;12.25;;;;;;;;;;5093386;28;20388;-71
2022/03/13 08:40:56;;;;;;;18.00;11.90;;;;;;;;;;5102480;28;20095;-72
2022/03/13 08:43:23;;;;;;;17.75;12.23;;;;;;;;;;5104547;28;20398;-73
2022/03/13 08:45:49;;;;;;;19.23;12.52;;;;;;;;;;5109356;28;20098;-73
2022/03/13 08:48:15;;;;;;;18.90;13.25;;;;;;;;;;5111178;28;20015;-73
2022/03/13 08:50:41;;;;;;;17.90;12.82;;;;;;;;;;5109133;28;20388;-73
2022/03/13 08:53:08;;;;;;;17.60;13.32;;;;;;;;;;5109280;28;20020;-73
2022/03/13 08:55:34;;;;;;;18.63;13.50;;;;;;;;;;5109620;28;20023;-68
2022/03/13 08:58:00;;;;;;;19.15;13.07;;;;;;;;;;5109567;28;20028;-69
2022/03/13 09:00:27;;;;;;;19.42;13.43;;;;;;;;;;5108853;28;20015;-67
2022/03/13 09:02:53;;;;;;;18.65;13.20;;;;;;;;;;5110386;28;20020;-67
2022/03/13 09:05:20;;;;;;;18.83;12.82;;;;;;;;;;5108077;28;20022;-67
2022/03/13 09:07:46;;;;;;;20.48;13.07;;;;;;;;;;5107432;28;20024;-72
2022/03/13 09:10:12;;;;;;;19.52;13.70;;;;;;;;;;5108572;28;20020;-72
2022/03/13 09:12:38;;;;;;;19.60;12.52;;;;;;;;;;5088828;28;20028;-72
2022/03/13 09:15:06;;;;;;;19.83;12.77;;;;;;;;;;5075025;28;20020;-72
2022/03/13 09:17:32;;;;;;;18.73;13.23;;;;;;;;;;5095558;28;20043;-73
2022/03/13 09:19:58;;;;;;;18.25;12.93;;;;;;;;;;5095194;28;20024;-73
2022/03/13 09:22:28;;;;;;;19.73;13.82;;;;;;;;;;5073849;28;20016;-73
2022/03/13 09:24:57;;;;;;;22.80;14.15;;;;;;;;;;5089181;28;20036;-72
2022/03/13 09:27:23;;;;;;;19.13;13.27;;;;;;;;;;5073684;28;20028;-73
2022/03/13 09:29:49;;;;;;;20.67;14.70;;;;;;;;;;5079560;28;20077;-72
2022/03/13 09:32:15;;;;;;;21.08;14.18;;;;;;;;;;5096812;28;20055;-72
2022/03/13 09:34:41;;;;;;;19.13;13.30;;;;;;;;;;5097470;28;20058;-72
2022/03/13 09:37:07;;;;;;;20.23;13.38;;;;;;;;;;5095107;28;20043;-72
2022/03/13 09:39:34;;;;;;;19.35;13.60;;;;;;;;;;5094720;28;20531;-72
2022/03/13 09:42:00;;;;;;;19.15;13.50;;;;;;;;;;5096495;28;20064;-72
2022/03/13 09:44:25;;;;;;;19.90;13.73;;;;;;;;;;5097584;28;20062;-72
2022/03/13 09:46:52;;;;;;;21.55;14.50;;;;;;;;;;5099701;28;20183;-73
2022/03/13 09:49:20;;;;;;;23.25;15.88;;;;;;;;;;5110721;28;20064;-72
2022/03/13 09:51:46;;;;;;;24.23;15.07;;;;;;;;;;5093624;28;20303;-73
2022/03/13 09:54:13;;;;;;;18.70;12.88;;;;;;;;;;5098601;28;20023;-73
2022/03/13 09:56:39;;;;;;;20.52;13.15;;;;;;;;;;5080913;28;20028;-74
2022/03/13 09:59:05;;;;;;;24.65;14.48;;;;;;;;;;5098677;28;20503;-73
2022/03/13 10:01:31;;;;;;;21.33;13.48;;;;;;;;;;5098516;28;20523;-73
2022/03/13 10:03:57;;;;;;;20.13;14.60;;;;;;;;;;5094350;28;20500;-73
2022/03/13 10:06:24;;;;;;;18.38;12.73;;;;;;;;;;5095509;28;20024;-73
2022/03/13 10:08:50;;;;;;;17.95;12.82;;;;;;;;;;5080621;28;20059;-73
2022/03/13 10:11:20;;;;;;;18.70;12.95;;;;;;;;;;5098844;28;20063;-73
2022/03/13 10:13:47;;;;;;;20.50;12.90;;;;;;;;;;5097659;28;20115;-73
2022/03/13 10:16:19;;;;;;;18.52;11.60;;;;;;;;;;5080245;28;20019;-73
2022/03/13 10:18:45;;;;;;;19.88;12.95;;;;;;;;;;5094551;28;20421;-73
2022/03/13 10:21:12;;;;;;;17.55;11.98;;;;;;;;;;5080093;28;20084;-73
2022/03/13 10:23:39;;;;;;;19.33;12.70;;;;;;;;;;5098895;28;20451;-74
2022/03/13 10:26:05;;;;;;;18.45;12.60;;;;;;;;;;5077891;28;20032;-74
2022/03/13 10:28:38;;;;;;;17.38;10.65;;;;;;;;;;5098661;28;20028;-73
2022/03/13 10:31:04;;;;;;;16.35;10.27;;;;;;;;;;5095719;28;20045;-73
2022/03/13 10:33:36;;;;;;;20.60;13.18;;;;;;;;;;5095764;28;20095;-73
2022/03/13 10:36:14;;;;;;;20.17;12.75;;;;;;;;;;5098317;28;20508;-74
2022/03/13 10:38:41;;;;;;;18.15;11.70;;;;;;;;;;5098565;28;20024;-73
2022/03/13 10:41:12;;;;;;;18.02;11.25;;;;;;;;;;5079291;28;20038;-72
2022/03/13 10:43:47;;;;;;;16.40;11.13;;;;;;;;;;5098074;28;20602;-72
2022/03/13 10:46:24;;;;;;;18.27;12.25;;;;;;;;;;5079581;28;20400;-73
2022/03/13 10:48:50;;;;;;;22.60;14.07;;;;;;;;;;5076742;28;20032;-74
2022/03/13 10:51:17;;;;;;;18.73;11.90;;;;;;;;;;5108983;28;20362;-72
2022/03/13 10:53:43;;;;;;;16.30;11.23;;;;;;;;;;5107116;28;20019;-72
2022/03/13 10:56:10;;;;;;;17.98;12.15;;;;;;;;;;5102973;28;20493;-72
2022/03/13 10:58:38;;;;;;;16.15;10.80;;;;;;;;;;5080029;28;20404;-72
2022/03/13 11:01:05;;;;;;;22.08;13.30;;;;;;;;;;5095622;28;20375;-73
2022/03/13 11:03:32;;;;;;;14.73;9.27;;;;;;;;;;5094926;28;20487;-73
2022/03/13 11:05:58;;;;;;;16.58;11.10;;;;;;;;;;5108664;28;20032;-72
2022/03/13 11:08:26;;;;;;;19.50;13.70;;;;;;;;;;5101120;28;20020;-72
2022/03/13 11:10:52;;;;;;;21.05;13.27;;;;;;;;;;5079510;28;20492;-72
2022/03/13 11:13:20;;;;;;;19.85;12.35;;;;;;;;;;5097514;28;20069;-72
2022/03/13 11:15:46;;;;;;;17.15;12.65;;;;;;;;;;5093776;28;20032;-72
2022/03/13 11:18:16;;;;;;;16.38;11.20;;;;;;;;;;5097317;28;20027;-73
2022/03/13 11:20:42;;;;;;;15.25;10.52;;;;;;;;;;5097823;28;20056;-73
2022/03/13 11:23:09;;;;;;;19.52;14.10;;;;;;;;;;5079628;28;20078;-73
2022/03/13 11:25:35;;;;;;;16.70;11.02;;;;;;;;;;5097454;28;20020;-72
2022/03/13 11:28:02;;;;;;;19.15;14.20;;;;;;;;;;5095414;28;20059;-72
2022/03/13 11:30:36;;;;;;;18.33;11.95;;;;;;;;;;5054109;28;20044;-73
2022/03/13 11:33:02;;;;;;;20.05;13.52;;;;;;;;;;5056635;28;20029;-73
2022/03/13 11:35:30;;;;;;;19.30;13.43;;;;;;;;;;5056167;28;20017;-73
2022/03/13 11:38:05;;;;;;;19.70;13.25;;;;;;;;;;5056335;28;20028;-73
2022/03/13 11:40:38;;;;;;;17.55;12.55;;;;;;;;;;5056223;28;20482;-73
2022/03/13 11:43:21;;;;;;;18.20;12.95;;;;;;;;;;5053454;28;20478;-74
2022/03/13 11:46:00;;;;;;;19.70;12.70;;;;;;;;;;5068678;28;20370;-74
2022/03/13 11:48:29;;;;;;;15.05;10.90;;;;;;;;;;5050850;28;20029;-74
2022/03/13 11:50:59;;;;;;;19.35;13.93;;;;;;;;;;5063172;28;20432;-74
2022/03/13 11:53:26;;;;;;;15.48;8.13;;;;;;;;;;5058872;28;20103;-73
2022/03/13 11:55:58;;;;;;;17.92;12.57;;;;;;;;;;5057002;28;20021;-73
2022/03/13 11:58:42;;;;;;;22.25;14.45;;;;;;;;;;5057278;28;20020;-74
2022/03/13 12:01:16;;;;;;;18.50;13.15;;;;;;;;;;5067035;28;20059;-74
2022/03/13 12:04:01;;;;;;;16.92;10.82;;;;;;;;;;5051049;28;20029;-73
2022/03/13 12:06:41;;;;;;;16.08;11.63;;;;;;;;;;5067709;28;20044;-74
2022/03/13 12:09:08;;;;;;;17.52;11.80;;;;;;;;;;5054644;28;20029;-74
2022/03/13 12:11:38;;;;;;;17.42;12.70;;;;;;;;;;5056229;28;20053;-73
2022/03/13 12:14:07;;;;;;;17.38;11.95;;;;;;;;;;5055948;28;20028;-73
2022/03/13 12:16:33;;;;;;;20.25;11.95;;;;;;;;;;5056637;28;20020;-74
2022/03/13 12:18:59;;;;;;;20.30;13.95;;;;;;;;;;5052074;28;20048;-74
2022/03/13 12:21:26;;;;;;;19.58;13.27;;;;;;;;;;5053123;28;20069;-74
2022/03/13 12:23:52;;;;;;;19.40;15.38;;;;;;;;;;5065547;28;20043;-74
2022/03/13 12:26:22;;;;;;;21.30;14.57;;;;;;;;;;5058978;28;20049;-73
2022/03/13 12:28:49;;;;;;;19.23;13.93;;;;;;;;;;5055649;28;20444;-73
2022/03/13 12:31:15;;;;;;;20.58;13.45;;;;;;;;;;5054589;28;20381;-72
2022/03/13 12:33:45;;;;;;;18.42;14.00;;;;;;;;;;5050939;28;20021;-73
2022/03/13 12:36:12;;;;;;;18.75;13.43;;;;;;;;;;5055782;28;20020;-74
2022/03/13 12:38:42;;;;;;;17.42;11.50;;;;;;;;;;5055338;28;20087;-72
2022/03/13 12:41:09;;;;;;;19.58;12.95;;;;;;;;;;5056456;28;20017;-72
2022/03/13 12:43:47;;;;;;;20.50;13.90;;;;;;;;;;5054632;28;20409;-72
2022/03/13 12:46:17;;;;;;;20.27;14.07;;;;;;;;;;5061035;28;20037;-72
2022/03/13 12:48:56;;;;;;;17.45;12.32;;;;;;;;;;5051338;28;20056;-72
2022/03/13 12:51:41;;;;;;;19.20;14.23;;;;;;;;;;5066948;28;20029;-72
2022/03/13 12:54:18;;;;;;;20.30;14.30;;;;;;;;;;5064362;28;20025;-72
2022/03/13 12:56:51;;;;;;;18.75;11.80;;;;;;;;;;5054337;28;20518;-73
2022/03/13 12:59:23;;;;;;;20.65;13.13;;;;;;;;;;5056194;28;20025;-73
2022/03/13 13:02:03;;;;;;;20.20;12.40;;;;;;;;;;5056780;28;20028;-72
2022/03/13 13:04:29;;;;;;;21.13;14.00;;;;;;;;;;5069393;28;20024;-73
2022/03/13 13:06:55;;;;;;;14.85;11.38;;;;;;;;;;5055388;28;20033;-73
2022/03/13 13:09:31;;;;;;;19.30;13.43;;;;;;;;;;5057000;28;20021;-73
2022/03/13 13:11:58;;;;;;;19.38;10.45;;;;;;;;;;5059409;28;20134;-72
2022/03/13 13:14:25;;;;;;;15.38;10.15;;;;;;;;;;5059669;28;20020;-73
2022/03/13 13:16:51;;;;;;;21.83;12.98;;;;;;;;;;5059654;28;20060;-73
2022/03/13 13:19:18;;;;;;;17.92;12.02;;;;;;;;;;5059245;28;20477;-72
2022/03/13 13:21:44;;;;;;;15.10;10.60;;;;;;;;;;5053954;28;20085;-72
2022/03/13 13:24:25;;;;;;;18.30;12.43;;;;;;;;;;5059014;28;20032;-73
2022/03/13 13:26:51;;;;;;;17.73;12.98;;;;;;;;;;5069176;28;20659;-72
2022/03/13 13:29:31;;;;;;;20.00;12.13;;;;;;;;;;5083107;28;20039;-72
2022/03/13 13:32:16;;;;;;;12.52;8.50;;;;;;;;;;5081665;28;20051;-73
2022/03/13 13:34:44;;;;;;;18.20;10.95;;;;;;;;;;5081792;28;20043;-72
2022/03/13 13:37:10;;;;;;;18.52;12.30;;;;;;;;;;5097864;28;20016;-73
2022/03/13 13:39:36;;;;;;;16.88;11.20;;;;;;;;;;5078282;28;20056;-72
2022/03/13 13:42:02;;;;;;;14.95;9.80;;;;;;;;;;5092442;28;20020;-73
2022/03/13 13:44:31;;;;;;;18.08;13.15;;;;;;;;;;5101211;28;20391;-73
2022/03/13 13:47:07;;;;;;;18.63;12.93;;;;;;;;;;5098914;28;20362;-73
2022/03/13 13:49:34;;;;;;;14.73;10.02;;;;;;;;;;5081759;28;20115;-73
2022/03/13 13:52:10;;;;;;;17.47;10.97;;;;;;;;;;5078830;28;20431;-72
2022/03/13 13:54:37;;;;;;;18.63;12.73;;;;;;;;;;5077741;28;20036;-73
2022/03/13 13:57:03;;;;;;;17.38;11.15;;;;;;;;;;5080637;28;20032;-72
2022/03/13 13:59:31;;;;;;;15.27;8.85;;;;;;;;;;5099151;28;20485;-72
2022/03/13 14:02:03;;;;;;;19.25;12.00;;;;;;;;;;5099357;28;20381;-72
2022/03/13 14:04:30;;;;;;;16.23;11.38;;;;;;;;;;5098452;28;20099;-72
2022/03/13 14:06:57;;;;;;;21.17;13.10;;;;;;;;;;5096124;28;20118;-72
2022/03/13 14:09:23;;;;;;;12.80;8.85;;;;;;;;;;5097250;28;20472;-72
2022/03/13 14:11:49;;;;;;;19.50;13.00;;;;;;;;;;5077280;28;20485;-72
2022/03/13 14:14:15;;;;;;;13.98;9.63;;;;;;;;;;5083037;28;20035;-72
2022/03/13 14:16:43;;;;;;;17.65;12.75;;;;;;;;;;5081234;28;20020;-72
2022/03/13 14:19:09;;;;;;;14.93;7.63;;;;;;;;;;5078299;28;20020;-72
2022/03/13 14:21:36;;;;;;;16.10;10.38;;;;;;;;;;5110413;28;20016;-72